Station: Telfer  

  Atmospheric Gas Attenuation - ITU Rec 676-11   ----------------- dB/100km -----------------
Date Time Temp RH % AH g/m3 Dew Point Wind Direction Speed kph Gust kph Barometer mB Rainfall Since 9am 24GHz 47GHz 76GHz 122GHz 134GHz 241GHz
08/05 09:20 20.7 31 5.58 3 39 50 1022.3 0 12.9 20.0 26.4 68.6 56.2 191.3
08/05 09:10 20.8 32 5.79 3.5 30 35 1022.4 0 13.4 20.3 27.1 70.4 58.4 199.0
08/05 09:00 20.5 32 5.69 3.3 33 46 1022.4 0 13.2 20.2 26.8 69.8 57.6 195.9
08/05 08:50 19.9 33 5.67 3.2 37 46 1022.3 0 13.2 20.3 27.0 70.1 57.8 196.6
08/05 08:40 19.6 34 5.74 3.3 37 43 1022.3 0 13.3 20.5 27.3 71.0 58.7 200.0
08/05 08:30 19.1 34 5.57 2.9 37 56 1022.2 0 13.0 20.4 26.9 69.9 57.2 194.6
08/05 08:20 18.8 36 5.8 3.4 35 43 1022 0 13.5 20.7 27.7 72.2 60.0 204.2
08/05 08:10 18.3 36 5.63 3 41 50 1022 0 13.1 20.6 27.3 71.1 58.4 198.8
08/05 08:00 17.8 38 5.77 3.3 35 46 1022 0 13.4 20.9 28.0 72.8 60.4 205.5
08/05 07:50 17.5 39 5.81 3.4 35 43 1022 0 13.5 21.1 28.2 73.4 61.1 207.9
08/05 07:40 16.9 40 5.75 3.2 37 46 1021.9 0 13.4 21.1 28.2 73.4 60.8 207.0
08/05 07:30 16.5 41 5.76 3.2 32 43 1021.8 0 13.5 21.2 28.4 73.9 61.2 208.4
08/05 07:20 16.1 42 5.76 3.2 32 35 1021.8 0 13.5 21.3 28.5 74.2 61.5 209.4
08/05 07:10 15.6 43 5.72 3.1 30 37 1021.7 0 13.4 21.4 28.6 74.3 61.5 209.0
08/05 07:00 15.2 44 5.71 3 28 35 1021.5 0 13.4 21.4 28.6 74.6 61.6 209.6
08/05 06:50 14.8 45 5.7 3 24 24 1021.5 0 13.4 21.5 28.8 74.8 61.8 210.2
08/05 06:40 14.4 45 5.56 2.6 24 30 1021.4 0 13.1 21.4 28.4 73.9 60.5 205.5
08/05 06:30 14.2 45 5.5 2.5 26 32 1021.3 0 13.0 21.3 28.2 73.5 59.9 203.5
08/05 06:20 14.2 45 5.5 2.5 26 30 1021.3 0 13.0 21.3 28.2 73.5 59.9 203.5
08/05 06:10 14.2 45 5.5 2.5 26 28 1021.3 0 13.0 21.3 28.2 73.5 59.9 203.5
08/05 06:00 14.2 44 5.37 2.1 22 28 1021.2 0 12.7 21.2 27.8 72.2 58.4 198.1
08/05 05:50 14.2 43 5.25 1.8 22 26 1021.2 0 12.5 21.0 27.4 71.1 57.0 193.2
08/05 05:40 14.3 43 5.28 1.9 22 28 1021.2 0 12.5 21.0 27.4 71.3 57.3 194.2
08/05 05:30 14.3 42 5.16 1.6 22 28 1020.9 0 12.3 20.8 27.0 70.1 55.9 189.3
08/05 05:20 14.4 42 5.19 1.7 26 28 1020.9 0 12.3 20.8 27.1 70.3 56.2 190.3
08/05 05:10 14.4 41 5.07 1.3 24 28 1020.8 0 12.1 20.7 26.7 69.2 54.8 185.4
08/05 05:00 14.5 40 4.98 1.1 24 33 1020.5 0 11.9 20.5 26.3 68.3 53.7 181.5
08/05 04:50 14.6 40 5.01 1.2 26 30 1020.5 0 11.9 20.5 26.4 68.5 53.9 182.5
08/05 04:40 14.7 39 4.91 0.9 26 30 1020.5 0 11.7 20.4 26.0 67.5 52.7 178.3
08/05 04:30 14.8 38 4.81 0.6 26 28 1020.5 0 11.5 20.2 25.6 66.5 51.5 174.1
08/05 04:20 15 37 4.74 0.4 24 28 1020.4 0 11.4 20.1 25.3 65.7 50.6 170.9
08/05 04:10 15.1 37 4.77 0.5 24 28 1020.4 0 11.4 20.1 25.4 65.8 50.9 171.9
08/05 04:00 15.1 37 4.77 0.5 22 28 1020.4 0 11.4 20.1 25.4 65.8 50.9 171.9
08/05 03:50 14.9 37 4.72 0.4 20 22 1020.4 0 11.3 20.1 25.3 65.6 50.5 170.3
08/05 03:40 15 37 4.74 0.4 22 32 1020.3 0 11.4 20.1 25.3 65.6 50.6 170.9
08/05 03:30 14.9 37 4.72 0.4 22 28 1020.2 0 11.3 20.1 25.3 65.5 50.4 170.3
08/05 03:20 14.9 37 4.72 0.4 22 24 1020.2 0 11.3 20.1 25.3 65.5 50.4 170.3
08/05 03:10 14.9 36 4.59 0 20 22 1020.2 0 11.0 19.9 24.8 64.4 49.0 165.1
08/05 03:00 14.9 36 4.59 0 20 28 1020.1 0 11.0 19.9 24.8 64.4 49.0 165.1
08/05 02:50 14.8 37 4.69 0.3 22 24 1019.9 0 11.3 20.0 25.2 65.3 50.2 169.2
08/05 02:40 14.6 37 4.63 0.1 22 24 1019.8 0 11.1 20.0 25.0 64.9 49.6 167.3
08/05 02:30 14.4 37 4.57 -0.1 19 22 1019.8 0 11.0 19.9 24.9 64.5 49.0 165.3
08/05 02:20 14.4 37 4.57 -0.1 19 20 1020 0 11.0 19.9 24.9 64.6 49.1 165.3
08/05 02:10 14.5 37 4.6 0 15 19 1020.2 0 11.1 20.0 25.0 64.8 49.3 166.3
08/05 02:00 14.6 37 4.63 0.1 17 20 1020.2 0 11.1 20.0 25.1 65.0 49.6 167.3
08/05 01:50 14.7 36 4.53 -0.2 17 19 1020.2 0 10.9 19.8 24.7 64.0 48.4 163.2
08/05 01:40 15 36 4.62 0.1 19 20 1020.3 0 11.1 19.9 24.9 64.6 49.3 166.1
08/05 01:30 15.2 35 4.54 -0.1 20 24 1020.3 0 10.9 19.7 24.6 63.7 48.3 162.6
08/05 01:20 15.5 34 4.49 -0.3 20 24 1020.3 0 10.8 19.6 24.3 63.0 47.5 160.1
08/05 01:10 15.6 34 4.52 -0.2 19 20 1020.3 0 10.9 19.6 24.4 63.2 47.8 161.0
08/05 01:00 15.8 34 4.58 0 19 24 1020.4 0 11.0 19.7 24.5 63.6 48.3 163.0
08/05 00:50 16.2 33 4.55 -0.1 20 20 1020.4 0 10.9 19.6 24.3 63.0 47.8 161.1
08/05 00:40 16.3 33 4.58 0 19 20 1020.4 0 11.0 19.6 24.4 63.2 48.0 162.0
08/05 00:30 16.8 32 4.57 0 20 26 1020.4 0 10.9 19.5 24.2 62.7 47.6 160.7
08/05 00:20 16.8 32 4.57 0 20 22 1020.5 0 10.9 19.5 24.2 62.7 47.7 160.7
08/05 00:10 16.9 32 4.6 0.1 17 20 1020.5 0 11.0 19.5 24.3 62.9 47.9 161.6
08/05 00:00 17.5 31 4.62 0.2 20 30 1020.5 0 11.0 19.4 24.2 62.6 47.8 161.2
07/05 23:50 17.6 30 4.5 -0.2 19 20 1020.4 0 10.8 19.2 23.8 61.5 46.4 156.5
07/05 23:40 17.8 30 4.55 0 20 22 1020.5 0 10.9 19.2 23.9 61.8 46.9 158.0
07/05 23:30 18.4 29 4.56 0.1 20 28 1020.5 0 10.9 19.1 23.7 61.4 46.6 157.2
07/05 23:20 18.7 28 4.48 -0.2 20 24 1020.5 0 10.7 19.0 23.4 60.5 45.6 153.7
07/05 23:10 18.8 28 4.51 -0.1 20 24 1020.4 0 10.8 19.0 23.5 60.7 45.9 154.6
07/05 23:00 18.3 29 4.53 0 19 24 1020.5 0 10.8 19.1 23.7 61.3 46.4 156.3
07/05 22:50 18.4 29 4.56 0.1 20 24 1020.5 0 10.9 19.1 23.7 61.4 46.6 157.2
07/05 22:40 18.3 29 4.53 0 19 22 1020.7 0 10.8 19.1 23.7 61.3 46.4 156.3
07/05 22:30 18.6 29 4.62 0.2 22 26 1020.6 0 11.0 19.2 23.9 61.8 47.2 159.1
07/05 22:20 19 28 4.56 0.1 24 28 1020.5 0 10.9 19.0 23.6 61.0 46.3 156.1
07/05 22:10 19.2 28 4.62 0.3 20 24 1020.5 0 11.0 19.0 23.7 61.4 46.8 158.0
07/05 22:00 19.6 27 4.56 0.1 20 26 1020.6 0 10.8 18.9 23.4 60.6 46.0 155.0
07/05 21:50 19.6 27 4.56 0.1 20 24 1020.5 0 10.8 18.9 23.4 60.6 45.9 155.0
07/05 21:40 19.6 27 4.56 0.1 20 22 1020.4 0 10.8 18.9 23.4 60.6 45.9 155.0
07/05 21:30 19.6 27 4.56 0.1 19 26 1020.3 0 10.8 18.9 23.4 60.5 45.9 155.0
07/05 21:20 19.9 26 4.47 -0.1 19 20 1020.2 0 10.6 18.7 23.0 59.6 44.8 151.1
07/05 21:10 20.3 26 4.57 0.2 20 24 1020.2 0 10.8 18.7 23.2 60.1 45.7 154.0
07/05 21:00 20.5 25 4.45 -0.2 20 28 1020.2 0 10.6 18.6 22.8 59.0 44.3 149.3
07/05 20:50 20.9 25 4.55 0.2 20 24 1020.2 0 10.8 18.6 23.0 59.5 45.1 152.2
07/05 20:40 21 25 4.58 0.2 19 22 1020.1 0 10.8 18.6 23.1 59.7 45.4 153.1
07/05 20:30 21 25 4.58 0.2 20 26 1020.2 0 10.8 18.6 23.1 59.7 45.4 153.1
07/05 20:20 21.1 25 4.61 0.3 22 24 1020.1 0 10.9 18.6 23.1 59.9 45.6 154.0
07/05 20:10 21.3 25 4.66 0.5 20 24 1020.1 0 11.0 18.7 23.2 60.1 46.0 155.5
07/05 20:00 21.3 24 4.47 -0.1 20 28 1020 0 10.6 18.4 22.6 58.6 44.1 148.6
07/05 19:50 21.3 24 4.47 -0.1 20 20 1020 0 10.6 18.4 22.6 58.6 44.1 148.6
07/05 19:40 21.6 24 4.55 0.2 20 22 1019.9 0 10.8 18.5 22.8 59.0 44.7 150.9
07/05 19:30 21.8 24 4.6 0.4 20 26 1019.8 0 10.9 18.5 22.9 59.3 45.1 152.3
07/05 19:20 21.9 23 4.44 -0.1 20 26 1019.7 0 10.5 18.3 22.4 57.9 43.4 146.4
07/05 19:10 22.1 23 4.49 0 20 24 1019.6 0 10.6 18.3 22.5 58.1 43.8 147.8
07/05 19:00 22.1 23 4.49 0 19 22 1019.4 0 10.6 18.3 22.5 58.1 43.8 147.8
07/05 18:50 22.5 23 4.59 0.4 20 26 1019.3 0 10.8 18.3 22.7 58.7 44.6 150.7
07/05 18:40 22.8 22 4.47 0 20 24 1019.3 0 10.6 18.1 22.2 57.5 43.3 145.9
07/05 18:30 23 22 4.52 0.2 24 33 1019.2 0 10.7 18.1 22.3 57.7 43.6 147.3
07/05 18:20 23.1 22 4.55 0.2 20 24 1019.1 0 10.7 18.1 22.4 57.9 43.9 148.2
07/05 18:10 23.4 22 4.63 0.5 24 30 1019 0 10.9 18.2 22.5 58.3 44.5 150.4
07/05 18:00 23.4 21 4.42 -0.1 24 35 1018.9 0 10.4 17.9 21.9 56.6 42.4 143.0
07/05 17:50 23.7 21 4.49 0.1 24 30 1018.8 0 10.6 18.0 22.0 57.0 43.0 145.0
07/05 17:40 23.9 20 4.33 -0.4 30 33 1018.6 0 10.2 17.7 21.5 55.6 41.3 139.0
07/05 17:30 24 20 4.35 -0.3 28 39 1018.5 0 10.3 17.7 21.5 55.7 41.4 139.5
07/05 17:20 24.2 19 4.18 -0.9 24 33 1018.5 0 9.9 17.5 21.0 54.2 39.7 133.4
07/05 17:10 24.5 19 4.25 -0.6 30 35 1018.3 0 10.1 17.5 21.1 54.5 40.2 135.3
07/05 17:00 24.8 19 4.32 -0.4 28 39 1018 0 10.2 17.5 21.2 54.9 40.7 137.2
07/05 16:50 25.1 19 4.4 -0.1 32 37 1018.1 0 10.4 17.6 21.4 55.3 41.4 139.4

Last Refresh: 08-May-2026 11:02:59

Bureau of Meteorology